首页
METAR-TAF:

METAR-TAF

机场 :

温泉城, 阿肯色州, 美国

纬度: 34-28-41N, 经度: 093-05-46W, 海拔: 165米

当前天气观测

该预报发布于19分钟前的09:53 UTC
风速6节,风向
温度 13°C
湿度 62%
气压 1017 hPa
能見度: 16.1公里
天空无云

METAR: KHOT 020953Z AUTO 08006KT 10SM CLR 13/06 A3002 RMK AO2 SLP161 T01330061

时间: 05:12 (10:12 UTC)

预报

该预报发布于4小时和47分钟前的05:25 UTC
预报有效从02日的 06点(UTC)到 03日的 06点(UTC)
风速6节,风向东转东南
能見度: 10公里
阴天层高于20000英尺
从 02日的 1600点(UTC)
风速10节,风向南转南东,有时为19节阵风
能見度: 10公里
多云层高于25000英尺
从 03日的 0000点(UTC)
风速10节,风向
能見度: 10公里
阴天层高于10000英尺

TAF: KHOT 020525Z 0206/0306 12006KT P6SM OVC200 FM021600 15010G19KT P6SM BKN250 FM030000 17010KT P6SM OVC100

超过4000个机场的气象观测和天气预报(METAR&TAF报告)。

可查询的气象台以黄色和红色小点在地图上表示。

将鼠标移到小点上方,可查看气象台名称。

然后点击查看天气观测和预报。

如需切换地图:点击带黑十字的绿色按钮放大地图;点击带横线的绿色按钮缩小地图;或者点击绿色箭头查看邻近地区的地图。


METAR-TAF: